Time;durP1;ratioP1;P1;durP2;ratioP2;P2;SDS_P1;SDS_P2;PMS_P1;PMS_P2;Temp;Humidity;BMP_temperature;BMP_pressure;BME280_temperature;BME280_humidity;BME280_pressure;Samples;Min_cycle;Max_cycle;Signal;HPM_P1;HPM_P2
2021/03/26 06:00:26;;;;;;;;;;;;;;;;;;5119802;27;20329;-63
2021/03/26 06:03:34;;;;;;;0.00;0.00;;;;;;;;;;5143228;27;20436;-64
2021/03/26 06:06:54;;;;;;;0.10;0.10;;;;;;;;;;5142686;27;20046;-63
2021/03/26 06:09:52;;;;;;;0.10;0.10;;;;;;;;;;5073189;28;20062;-62
2021/03/26 06:12:48;;;;;;;1.08;1.00;;;;;;;;;;5077151;28;20117;-64
2021/03/26 06:15:51;;;;;;;0.60;0.10;;;;;;;;;;5070439;28;20101;-64
2021/03/26 06:18:46;;;;;;;0.15;0.10;;;;;;;;;;5060413;28;20418;-63
2021/03/26 06:21:37;;;;;;;0.17;0.17;;;;;;;;;;5050807;28;20043;-75
2021/03/26 06:24:49;;;;;;;0.88;0.40;;;;;;;;;;5049415;28;20099;-63
2021/03/26 06:27:28;;;;;;;8.90;0.98;;;;;;;;;;4986795;28;20042;-63
2021/03/26 06:29:57;;;;;;;0.47;0.30;;;;;;;;;;4990586;28;20489;-64
2021/03/26 06:32:27;;;;;;;3.47;0.30;;;;;;;;;;4987304;28;20101;-62
2021/03/26 06:35:38;;;;;;;1.55;0.43;;;;;;;;;;4987341;28;20035;-63
2021/03/26 06:38:13;;;;;;;11.90;0.52;;;;;;;;;;4990414;28;20042;-65
2021/03/26 06:40:42;;;;;;;0.30;0.20;;;;;;;;;;4990247;28;20033;-63
2021/03/26 06:43:28;;;;;;;3.53;0.95;;;;;;;;;;4998497;28;20037;-63
2021/03/26 06:46:13;;;;;;;0.73;0.55;;;;;;;;;;5020505;28;20038;-64
2021/03/26 06:48:58;;;;;;;1.75;0.20;;;;;;;;;;4992114;28;20038;-64
2021/03/26 06:51:31;;;;;;;0.40;0.40;;;;;;;;;;5021029;28;20093;-63
2021/03/26 06:54:16;;;;;;;0.65;0.38;;;;;;;;;;5020535;28;20076;-67
2021/03/26 06:56:57;;;;;;;0.13;0.13;;;;;;;;;;5059419;28;20049;-64
2021/03/26 06:59:42;;;;;;;1.05;0.52;;;;;;;;;;5054469;28;20052;-64
2021/03/26 07:02:26;;;;;;;0.25;0.25;;;;;;;;;;5027742;28;20056;-63
2021/03/26 07:04:52;;;;;;;0.52;0.52;;;;;;;;;;5096625;28;20104;-63
2021/03/26 07:07:37;;;;;;;0.43;0.30;;;;;;;;;;5110323;28;20034;-64
2021/03/26 07:10:04;;;;;;;1.10;0.90;;;;;;;;;;5106233;28;20481;-62
2021/03/26 07:12:49;;;;;;;0.65;0.55;;;;;;;;;;5099313;28;20020;-65
2021/03/26 07:15:18;;;;;;;1.80;0.23;;;;;;;;;;5111757;28;20449;-65
2021/03/26 07:17:56;;;;;;;0.85;0.55;;;;;;;;;;5111874;28;20453;-64
2021/03/26 07:20:41;;;;;;;0.20;0.10;;;;;;;;;;5107976;28;20472;-63
2021/03/26 07:23:33;;;;;;;1.87;0.20;;;;;;;;;;5107745;28;20020;-64
2021/03/26 07:26:18;;;;;;;1.95;0.95;;;;;;;;;;5034844;28;20053;-63
2021/03/26 07:28:56;;;;;;;0.10;0.10;;;;;;;;;;5029120;28;20040;-66
2021/03/26 07:31:37;;;;;;;0.68;0.47;;;;;;;;;;5029079;28;20037;-66
2021/03/26 07:34:22;;;;;;;1.20;0.73;;;;;;;;;;5031540;28;20071;-65
2021/03/26 07:37:03;;;;;;;2.47;1.40;;;;;;;;;;5028834;28;20037;-64
2021/03/26 07:39:29;;;;;;;0.40;0.30;;;;;;;;;;5026293;28;20501;-65
2021/03/26 07:42:05;;;;;;;0.40;0.40;;;;;;;;;;5043116;28;20404;-67
2021/03/26 07:44:44;;;;;;;0.10;0.10;;;;;;;;;;5038643;28;20041;-67
2021/03/26 07:47:36;;;;;;;3.40;1.05;;;;;;;;;;5030565;28;20033;-67
2021/03/26 07:50:21;;;;;;;5.97;0.40;;;;;;;;;;5027758;28;20404;-72
2021/03/26 07:52:53;;;;;;;1.08;0.17;;;;;;;;;;5029286;28;20565;-67
2021/03/26 07:55:29;;;;;;;3.42;0.32;;;;;;;;;;5028108;28;20025;-68
2021/03/26 07:58:04;;;;;;;2.95;0.47;;;;;;;;;;5027811;28;20056;-67
2021/03/26 08:00:48;;;;;;;0.20;0.20;;;;;;;;;;5028510;28;20037;-69
2021/03/26 08:03:27;;;;;;;0.73;0.43;;;;;;;;;;5085147;28;20085;-65
2021/03/26 08:06:12;;;;;;;0.00;0.00;;;;;;;;;;5111426;28;20109;-66
2021/03/26 08:08:45;;;;;;;0.50;0.50;;;;;;;;;;5111159;28;20036;-65
2021/03/26 08:11:30;;;;;;;7.85;1.85;;;;;;;;;;5109569;28;20019;-67
2021/03/26 08:14:15;;;;;;;2.47;0.25;;;;;;;;;;5109804;28;20038;-65
2021/03/26 08:17:00;;;;;;;1.75;1.25;;;;;;;;;;5094001;28;20028;-65
2021/03/26 08:19:58;;;;;;;4.00;0.47;;;;;;;;;;5108834;28;20608;-66
2021/03/26 08:22:34;;;;;;;1.33;1.05;;;;;;;;;;5026943;28;20041;-67
2021/03/26 08:25:00;;;;;;;;;;;;;;;;;;5027652;28;20091;-64
2021/03/26 08:27:26;;;;;;;;;;;;;;;;;;5027631;28;20430;-67
2021/03/26 08:29:52;;;;;;;;;;;;;;;;;;5028694;28;20016;-67
2021/03/26 08:32:18;;;;;;;;;;;;;;;;;;5027086;28;20440;-65
2021/03/26 08:35:02;;;;;;;21.45;0.95;;;;;;;;;;5027180;28;19956;-65
2021/03/26 08:37:28;;;;;;;0.15;0.15;;;;;;;;;;5026888;28;20037;-66
2021/03/26 08:39:57;;;;;;;0.38;0.32;;;;;;;;;;5027298;28;20034;-67
2021/03/26 08:42:41;;;;;;;0.10;0.10;;;;;;;;;;5027553;28;20026;-66
2021/03/26 08:45:10;;;;;;;1.15;0.30;;;;;;;;;;5010227;28;20057;-65
2021/03/26 08:47:39;;;;;;;0.20;0.20;;;;;;;;;;5028354;28;20043;-65
2021/03/26 08:50:08;;;;;;;5.32;1.20;;;;;;;;;;5026044;28;20037;-64
2021/03/26 08:53:06;;;;;;;4.88;1.10;;;;;;;;;;5026582;28;20211;-66
2021/03/26 08:55:38;;;;;;;11.80;0.52;;;;;;;;;;4965639;28;20078;-65
2021/03/26 08:58:23;;;;;;;1.45;0.43;;;;;;;;;;5009682;28;20285;-64
2021/03/26 09:01:08;;;;;;;0.00;0.00;;;;;;;;;;5029551;28;20033;-65
2021/03/26 09:03:52;;;;;;;0.00;0.00;;;;;;;;;;5044371;28;20088;-65
2021/03/26 09:06:37;;;;;;;0.75;0.40;;;;;;;;;;5031496;28;20048;-64
2021/03/26 09:09:06;;;;;;;0.63;0.32;;;;;;;;;;5047490;28;20044;-66
2021/03/26 09:11:32;;;;;;;1.98;0.40;;;;;;;;;;5046704;28;20041;-65
2021/03/26 09:14:07;;;;;;;0.10;0.10;;;;;;;;;;5045726;28;20065;-65
2021/03/26 09:16:37;;;;;;;1.67;1.15;;;;;;;;;;5044340;28;20040;-65
2021/03/26 09:19:32;;;;;;;2.25;0.60;;;;;;;;;;5051116;28;20041;-64
2021/03/26 09:22:31;;;;;;;0.27;0.13;;;;;;;;;;5037383;28;20403;-64
2021/03/26 09:25:16;;;;;;;1.02;0.95;;;;;;;;;;5004864;28;20464;-65
2021/03/26 09:27:48;;;;;;;0.03;0.03;;;;;;;;;;5006996;28;20399;-65
2021/03/26 09:30:20;;;;;;;1.27;0.20;;;;;;;;;;5010448;28;20033;-66
2021/03/26 09:32:49;;;;;;;2.50;1.00;;;;;;;;;;5041338;28;20037;-65
2021/03/26 09:35:22;;;;;;;6.32;1.27;;;;;;;;;;5038645;28;20068;-66
2021/03/26 09:37:54;;;;;;;0.30;0.30;;;;;;;;;;5035607;28;20033;-66
2021/03/26 09:40:32;;;;;;;14.55;1.42;;;;;;;;;;5037099;28;20036;-66
2021/03/26 09:43:07;;;;;;;10.15;1.58;;;;;;;;;;5036629;28;20037;-68
2021/03/26 09:45:39;;;;;;;9.20;2.10;;;;;;;;;;5036942;28;20033;-61
2021/03/26 09:48:11;;;;;;;6.22;0.50;;;;;;;;;;5039278;28;20132;-65
2021/03/26 09:51:00;;;;;;;5.93;1.50;;;;;;;;;;5040915;28;20034;-65
2021/03/26 09:53:27;;;;;;;7.43;1.63;;;;;;;;;;4959335;28;20114;-65
2021/03/26 09:55:54;;;;;;;13.80;1.67;;;;;;;;;;4958948;28;20047;-67
2021/03/26 09:58:21;;;;;;;11.27;1.05;;;;;;;;;;4958423;28;20050;-66
2021/03/26 10:00:49;;;;;;;3.90;1.00;;;;;;;;;;4986564;28;20058;-65
2021/03/26 10:03:21;;;;;;;8.20;1.50;;;;;;;;;;5007445;28;20034;-67
2021/03/26 10:06:02;;;;;;;11.23;1.63;;;;;;;;;;5008569;28;20153;-64
2021/03/26 10:11:16;;;;;;;7.25;2.55;;;;;;;;;;5004493;28;20049;-66
2021/03/26 10:13:56;;;;;;;2.58;0.95;;;;;;;;;;5005891;28;20488;-66
2021/03/26 10:16:25;;;;;;;5.90;2.50;;;;;;;;;;5004936;28;20034;-65
2021/03/26 10:19:04;;;;;;;3.97;0.95;;;;;;;;;;5003848;28;20076;-66
2021/03/26 10:21:32;;;;;;;12.32;1.27;;;;;;;;;;5005957;28;20030;-64
2021/03/26 10:24:17;;;;;;;0.52;0.50;;;;;;;;;;5008562;28;20154;-65
2021/03/26 10:26:43;;;;;;;5.60;0.88;;;;;;;;;;5006956;28;20034;-70
2021/03/26 10:29:21;;;;;;;0.20;0.20;;;;;;;;;;5006552;28;20511;-70
2021/03/26 10:31:48;;;;;;;1.45;0.38;;;;;;;;;;5107644;28;20051;-70
2021/03/26 10:34:17;;;;;;;2.42;1.02;;;;;;;;;;5108510;28;20015;-69
2021/03/26 10:36:46;;;;;;;2.70;0.52;;;;;;;;;;5111747;28;20028;-69
2021/03/26 10:39:15;;;;;;;2.55;0.80;;;;;;;;;;5111312;28;20034;-70
2021/03/26 10:41:57;;;;;;;0.00;0.00;;;;;;;;;;5112602;28;20027;-69
2021/03/26 10:44:28;;;;;;;0.65;0.30;;;;;;;;;;5112863;28;20028;-69
2021/03/26 10:47:17;;;;;;;11.23;1.30;;;;;;;;;;5110288;28;20027;-68
2021/03/26 10:49:45;;;;;;;0.10;0.10;;;;;;;;;;5110732;28;20028;-68
2021/03/26 10:52:25;;;;;;;0.32;0.00;;;;;;;;;;5112060;28;20020;-68
2021/03/26 10:54:55;;;;;;;1.17;0.32;;;;;;;;;;5111584;28;20040;-69
2021/03/26 10:57:27;;;;;;;2.15;0.35;;;;;;;;;;5112163;28;20059;-69
2021/03/26 10:59:53;;;;;;;2.92;0.25;;;;;;;;;;5114095;28;20047;-69
2021/03/26 11:02:31;;;;;;;0.32;0.05;;;;;;;;;;5112449;28;20080;-67
2021/03/26 11:05:07;;;;;;;0.20;0.13;;;;;;;;;;5109070;28;20023;-69
2021/03/26 11:07:33;;;;;;;;;;;;;;;;;;5112655;28;20076;-68
2021/03/26 11:10:01;;;;;;;0.30;0.10;;;;;;;;;;5111728;28;19916;-67
2021/03/26 11:12:27;;;;;;;2.17;0.82;;;;;;;;;;5094217;28;20417;-67
2021/03/26 11:14:58;;;;;;;0.45;0.20;;;;;;;;;;5113552;28;20019;-69
2021/03/26 11:17:36;;;;;;;1.05;0.10;;;;;;;;;;5112299;28;20020;-67
2021/03/26 11:20:02;;;;;;;0.63;0.00;;;;;;;;;;5110197;28;20046;-68
2021/03/26 11:22:29;;;;;;;4.40;1.20;;;;;;;;;;5111068;28;20080;-67
2021/03/26 11:25:04;;;;;;;2.00;0.52;;;;;;;;;;5111949;28;20045;-68
2021/03/26 11:27:45;;;;;;;1.25;1.05;;;;;;;;;;5111145;28;20030;-69
2021/03/26 11:30:14;;;;;;;0.30;0.13;;;;;;;;;;5110950;28;20031;-67
2021/03/26 11:32:43;;;;;;;2.10;0.25;;;;;;;;;;5113433;28;20400;-67
2021/03/26 11:35:12;;;;;;;0.00;0.00;;;;;;;;;;5112089;28;20027;-67
2021/03/26 11:37:42;;;;;;;5.18;1.38;;;;;;;;;;5111697;28;20549;-67
2021/03/26 11:40:27;;;;;;;3.42;0.57;;;;;;;;;;5111277;28;20035;-67
2021/03/26 11:42:53;;;;;;;0.10;0.10;;;;;;;;;;5111752;28;20027;-67
2021/03/26 11:45:19;;;;;;;0.40;0.10;;;;;;;;;;5110319;28;20099;-67
2021/03/26 11:47:54;;;;;;;0.85;0.13;;;;;;;;;;5113141;28;20080;-67
2021/03/26 11:50:23;;;;;;;5.72;0.20;;;;;;;;;;5110617;28;20122;-66
2021/03/26 11:53:06;;;;;;;3.65;0.45;;;;;;;;;;5110542;28;20570;-67
2021/03/26 11:55:34;;;;;;;0.80;0.35;;;;;;;;;;5109406;28;20446;-66
2021/03/26 11:58:03;;;;;;;1.40;0.52;;;;;;;;;;5109620;28;20047;-67
2021/03/26 12:00:34;;;;;;;12.00;11.07;;;;;;;;;;5108857;28;20388;-67
2021/03/26 12:03:07;;;;;;;3.03;0.88;;;;;;;;;;5111874;28;20558;-67
2021/03/26 12:05:39;;;;;;;2.30;0.80;;;;;;;;;;5110963;28;20542;-71
2021/03/26 12:08:12;;;;;;;0.77;0.30;;;;;;;;;;5110477;28;20020;-71
2021/03/26 12:11:01;;;;;;;3.65;0.82;;;;;;;;;;5110949;28;20807;-71
2021/03/26 12:13:35;;;;;;;6.63;0.60;;;;;;;;;;5108621;28;20028;-70
2021/03/26 12:16:08;;;;;;;0.20;0.20;;;;;;;;;;5110610;28;20500;-70
2021/03/26 12:18:47;;;;;;;1.77;0.63;;;;;;;;;;5108921;28;20015;-71
2021/03/26 12:21:39;;;;;;;0.10;0.10;;;;;;;;;;5109472;28;20055;-71
2021/03/26 12:24:24;;;;;;;0.00;0.00;;;;;;;;;;5025721;28;20663;-68
2021/03/26 12:26:59;;;;;;;0.45;0.45;;;;;;;;;;5029973;28;20040;-66
2021/03/26 12:29:30;;;;;;;9.77;2.17;;;;;;;;;;5045408;28;20122;-67
2021/03/26 12:32:19;;;;;;;7.10;1.45;;;;;;;;;;5028740;28;20026;-68
2021/03/26 12:34:47;;;;;;;0.80;0.77;;;;;;;;;;5027789;28;20037;-69
2021/03/26 12:37:17;;;;;;;9.38;2.15;;;;;;;;;;5028376;28;20026;-68
2021/03/26 12:39:46;;;;;;;1.65;1.55;;;;;;;;;;5028725;28;20113;-67
2021/03/26 12:42:18;;;;;;;2.70;0.40;;;;;;;;;;5028758;28;20044;-67
2021/03/26 12:44:57;;;;;;;7.53;0.45;;;;;;;;;;5029340;28;20030;-68
2021/03/26 12:47:25;;;;;;;0.10;0.10;;;;;;;;;;5028077;28;20496;-66
2021/03/26 12:49:55;;;;;;;8.02;1.17;;;;;;;;;;5027777;28;20041;-70
2021/03/26 12:52:33;;;;;;;17.02;1.27;;;;;;;;;;5028013;28;20049;-68
2021/03/26 12:55:02;;;;;;;4.10;0.90;;;;;;;;;;5027119;28;20114;-68
2021/03/26 12:57:32;;;;;;;2.65;0.82;;;;;;;;;;5027364;28;20033;-68
2021/03/26 13:00:04;;;;;;;0.60;0.28;;;;;;;;;;5032201;28;20470;-68
2021/03/26 13:02:33;;;;;;;0.38;0.30;;;;;;;;;;5110347;28;20027;-68
2021/03/26 13:05:20;;;;;;;1.77;0.38;;;;;;;;;;5109251;28;20393;-67
2021/03/26 13:07:52;;;;;;;0.65;0.10;;;;;;;;;;5108407;28;20027;-63
2021/03/26 13:10:24;;;;;;;8.45;0.17;;;;;;;;;;5108855;28;20066;-67
2021/03/26 13:12:52;;;;;;;4.20;1.23;;;;;;;;;;5105605;28;20028;-68
2021/03/26 13:15:25;;;;;;;0.25;0.10;;;;;;;;;;5109710;28;20012;-66
2021/03/26 13:18:11;;;;;;;0.20;0.20;;;;;;;;;;5111019;28;20066;-67
2021/03/26 13:20:50;;;;;;;1.65;0.60;;;;;;;;;;5110285;28;20031;-67
2021/03/26 13:23:21;;;;;;;5.05;4.05;;;;;;;;;;5107644;28;20027;-67
2021/03/26 13:25:56;;;;;;;0.05;0.05;;;;;;;;;;5107692;28;20484;-65
2021/03/26 13:28:24;;;;;;;0.43;0.40;;;;;;;;;;5108344;28;20118;-67
2021/03/26 13:30:53;;;;;;;3.17;0.65;;;;;;;;;;5108131;28;20029;-66
2021/03/26 13:33:36;;;;;;;7.43;2.20;;;;;;;;;;5109066;28;20058;-65
2021/03/26 13:36:06;;;;;;;3.55;0.95;;;;;;;;;;5108995;28;20038;-66
2021/03/26 13:38:36;;;;;;;3.20;0.43;;;;;;;;;;5108171;28;20039;-65
2021/03/26 13:41:05;;;;;;;0.30;0.30;;;;;;;;;;5109927;28;20046;-66
2021/03/26 13:43:33;;;;;;;3.72;0.95;;;;;;;;;;5109618;28;20110;-66
2021/03/26 13:46:04;;;;;;;0.10;0.10;;;;;;;;;;5109767;28;20031;-65
2021/03/26 13:48:41;;;;;;;5.53;0.85;;;;;;;;;;5108350;28;20107;-66
2021/03/26 13:51:08;;;;;;;3.45;1.30;;;;;;;;;;5090165;28;20020;-65
2021/03/26 13:53:40;;;;;;;0.77;0.25;;;;;;;;;;5110217;28;20031;-66
2021/03/26 13:56:07;;;;;;;1.00;0.65;;;;;;;;;;5108940;28;20085;-63
2021/03/26 13:58:46;;;;;;;3.55;0.75;;;;;;;;;;5108274;28;20157;-65
2021/03/26 14:01:21;;;;;;;2.35;0.90;;;;;;;;;;5108223;28;20492;-66
2021/03/26 14:03:47;;;;;;;;;;;;;;;;;;5108567;28;20051;-67
2021/03/26 14:06:14;;;;;;;;;;;;;;;;;;5110161;28;19903;-67
2021/03/26 14:09:00;;;;;;;0.10;0.10;;;;;;;;;;5096230;28;19916;-66
2021/03/26 14:11:34;;;;;;;4.05;1.13;;;;;;;;;;5030388;28;20060;-70
2021/03/26 14:14:00;;;;;;;0.65;0.35;;;;;;;;;;5032009;28;20057;-69
2021/03/26 14:16:36;;;;;;;1.77;0.43;;;;;;;;;;5030500;28;20046;-71
2021/03/26 14:19:23;;;;;;;0.25;0.20;;;;;;;;;;5027009;28;20423;-72
2021/03/26 14:21:55;;;;;;;6.25;1.27;;;;;;;;;;5028297;28;20025;-70
2021/03/26 14:24:41;;;;;;;5.03;1.13;;;;;;;;;;5031818;28;20550;-74
2021/03/26 14:27:13;;;;;;;3.92;1.15;;;;;;;;;;5030905;28;20167;-70
2021/03/26 14:29:49;;;;;;;1.27;1.20;;;;;;;;;;5031801;28;20105;-76
2021/03/26 14:32:18;;;;;;;1.83;0.45;;;;;;;;;;5027395;28;20108;-71
2021/03/26 14:34:58;;;;;;;0.10;0.10;;;;;;;;;;5028718;28;20025;-70
2021/03/26 14:37:26;;;;;;;0.52;0.38;;;;;;;;;;5027172;28;20121;-72
2021/03/26 14:39:53;;;;;;;5.13;0.93;;;;;;;;;;5029090;28;20025;-70
2021/03/26 14:42:19;;;;;;;1.10;0.30;;;;;;;;;;5028105;28;20826;-66
2021/03/26 14:44:47;;;;;;;2.72;1.23;;;;;;;;;;5029601;28;20021;-71
2021/03/26 14:47:16;;;;;;;1.63;0.17;;;;;;;;;;5027764;28;20459;-73
2021/03/26 14:49:49;;;;;;;1.48;0.95;;;;;;;;;;5106002;28;20048;-72
2021/03/26 14:52:34;;;;;;;0.38;0.38;;;;;;;;;;5111477;28;20020;-72
2021/03/26 14:55:03;;;;;;;7.20;1.77;;;;;;;;;;5110916;28;20500;-70
2021/03/26 14:57:48;;;;;;;2.58;2.25;;;;;;;;;;5109067;28;20103;-72
2021/03/26 15:00:33;;;;;;;1.15;0.85;;;;;;;;;;5110012;28;20417;-73
2021/03/26 15:03:03;;;;;;;7.45;0.80;;;;;;;;;;5100872;27;20031;-71
2021/03/26 15:05:31;;;;;;;0.85;0.85;;;;;;;;;;5093330;28;20706;-67
2021/03/26 15:07:58;;;;;;;7.18;0.60;;;;;;;;;;5091858;28;20112;-70
2021/03/26 15:10:37;;;;;;;10.65;1.40;;;;;;;;;;5092675;28;20074;-69
2021/03/26 15:13:06;;;;;;;0.10;0.10;;;;;;;;;;5100660;28;20051;-70
2021/03/26 15:15:35;;;;;;;0.32;0.32;;;;;;;;;;5087980;28;20401;-68
2021/03/26 15:18:16;;;;;;;14.55;1.52;;;;;;;;;;5111942;28;20034;-70
2021/03/26 15:20:43;;;;;;;1.10;0.20;;;;;;;;;;5109969;28;20024;-70
2021/03/26 15:23:15;;;;;;;2.53;0.47;;;;;;;;;;5110010;28;20511;-70
2021/03/26 15:25:44;;;;;;;2.95;0.55;;;;;;;;;;5111179;28;20496;-71
2021/03/26 15:28:14;;;;;;;0.30;0.30;;;;;;;;;;5107387;28;20417;-69
2021/03/26 15:30:47;;;;;;;11.13;1.10;;;;;;;;;;5109762;28;20027;-66
2021/03/26 15:33:22;;;;;;;0.30;0.30;;;;;;;;;;5109050;28;20031;-71
2021/03/26 15:35:51;;;;;;;0.38;0.20;;;;;;;;;;5111610;28;20062;-70
2021/03/26 15:38:26;;;;;;;0.10;0.10;;;;;;;;;;5110687;28;20421;-71
2021/03/26 15:41:03;;;;;;;0.40;0.32;;;;;;;;;;5108369;28;20043;-67
2021/03/26 15:43:38;;;;;;;0.10;0.10;;;;;;;;;;5108426;28;20161;-66
2021/03/26 15:46:12;;;;;;;0.10;0.10;;;;;;;;;;5111038;28;20027;-66
2021/03/26 15:48:57;;;;;;;0.43;0.35;;;;;;;;;;5108384;28;20078;-65
2021/03/26 15:51:25;;;;;;;2.38;0.45;;;;;;;;;;5109830;28;20051;-67
2021/03/26 15:53:54;;;;;;;0.20;0.20;;;;;;;;;;5105589;28;20063;-65
2021/03/26 15:56:43;;;;;;;2.38;0.40;;;;;;;;;;5090732;27;20036;-66
2021/03/26 15:59:28;;;;;;;0.63;0.30;;;;;;;;;;5088866;28;20046;-63
2021/03/26 16:02:22;;;;;;;0.82;0.82;;;;;;;;;;5091626;28;20024;-67
2021/03/26 16:04:57;;;;;;;0.20;0.10;;;;;;;;;;5093479;28;20028;-65
2021/03/26 16:07:33;;;;;;;2.55;0.40;;;;;;;;;;5075920;28;20066;-66
2021/03/26 16:10:09;;;;;;;3.90;3.63;;;;;;;;;;5095662;28;20028;-66
2021/03/26 16:13:09;;;;;;;12.27;0.85;;;;;;;;;;5093085;28;20059;-66
2021/03/26 16:15:38;;;;;;;0.30;0.13;;;;;;;;;;5091758;28;20061;-65
2021/03/26 16:18:07;;;;;;;2.92;1.08;;;;;;;;;;5093728;28;20031;-66
2021/03/26 16:20:52;;;;;;;0.47;0.30;;;;;;;;;;5092854;28;20052;-67
2021/03/26 16:23:18;;;;;;;15.23;0.73;;;;;;;;;;5087613;28;20027;-65
2021/03/26 16:26:14;;;;;;;0.10;0.10;;;;;;;;;;5091083;28;20313;-65
2021/03/26 16:28:43;;;;;;;0.15;0.13;;;;;;;;;;5078802;28;20062;-62
2021/03/26 16:31:30;;;;;;;0.80;0.57;;;;;;;;;;5090618;28;20034;-64
2021/03/26 16:34:05;;;;;;;2.15;0.22;;;;;;;;;;5092943;28;20417;-65
2021/03/26 16:36:50;;;;;;;0.60;0.40;;;;;;;;;;5088373;28;20024;-66
2021/03/26 16:39:26;;;;;;;2.15;0.22;;;;;;;;;;5091548;28;20035;-62
2021/03/26 16:41:52;;;;;;;0.38;0.13;;;;;;;;;;5094560;28;20485;-65
2021/03/26 16:44:33;;;;;;;3.58;0.30;;;;;;;;;;5092143;28;20050;-64
2021/03/26 16:47:05;;;;;;;2.40;0.63;;;;;;;;;;5091099;28;20081;-63
2021/03/26 16:49:42;;;;;;;2.97;0.40;;;;;;;;;;5088356;28;20066;-66
2021/03/26 16:52:27;;;;;;;1.75;0.43;;;;;;;;;;5090785;28;20028;-66
2021/03/26 16:54:53;;;;;;;0.53;0.47;;;;;;;;;;5091168;28;20015;-67
2021/03/26 16:57:19;;;;;;;2.25;0.55;;;;;;;;;;5090084;28;20258;-65
2021/03/26 16:59:48;;;;;;;1.95;0.40;;;;;;;;;;5090217;28;20460;-67
2021/03/26 17:02:21;;;;;;;3.15;2.85;;;;;;;;;;5089674;28;20047;-67
2021/03/26 17:05:05;;;;;;;1.17;0.80;;;;;;;;;;5089660;28;20031;-68
2021/03/26 17:07:50;;;;;;;0.85;0.43;;;;;;;;;;5092133;28;20032;-64
2021/03/26 17:10:27;;;;;;;2.55;0.65;;;;;;;;;;5092501;28;20450;-64
2021/03/26 17:12:53;;;;;;;1.85;0.57;;;;;;;;;;5088276;28;20031;-66
2021/03/26 17:15:31;;;;;;;0.70;0.32;;;;;;;;;;5092925;28;20020;-63
2021/03/26 17:18:06;;;;;;;0.68;0.20;;;;;;;;;;5089138;28;20024;-66
2021/03/26 17:20:32;;;;;;;;;;;;;;;;;;5091388;28;20072;-65
2021/03/26 17:23:16;;;;;;;1.15;0.80;;;;;;;;;;5095001;28;19916;-64
2021/03/26 17:25:57;;;;;;;0.17;0.17;;;;;;;;;;5093373;28;20468;-65
2021/03/26 17:28:43;;;;;;;1.75;0.65;;;;;;;;;;5106293;28;20044;-64
2021/03/26 17:31:27;;;;;;;1.60;1.15;;;;;;;;;;5108619;28;20110;-66
2021/03/26 17:33:58;;;;;;;3.72;1.08;;;;;;;;;;5108165;28;20531;-63
2021/03/26 17:36:43;;;;;;;0.35;0.35;;;;;;;;;;5109146;28;20451;-62
2021/03/26 17:39:28;;;;;;;2.78;0.10;;;;;;;;;;5107909;28;20019;-68
2021/03/26 17:42:13;;;;;;;2.53;0.35;;;;;;;;;;5104941;28;20023;-62
2021/03/26 17:44:47;;;;;;;0.22;0.22;;;;;;;;;;5108208;28;20103;-67
2021/03/26 17:47:28;;;;;;;3.40;0.40;;;;;;;;;;5106331;28;20011;-69
2021/03/26 17:50:00;;;;;;;0.63;0.20;;;;;;;;;;5096908;28;20459;-66
2021/03/26 17:52:29;;;;;;;1.70;0.20;;;;;;;;;;5108557;28;20028;-63
2021/03/26 17:54:55;;;;;;;2.50;0.68;;;;;;;;;;5107128;28;20023;-64
2021/03/26 17:57:26;;;;;;;5.13;1.00;;;;;;;;;;5109825;28;20071;-62
2021/03/26 17:59:58;;;;;;;1.45;0.10;;;;;;;;;;5110458;28;20574;-63
2021/03/26 18:02:42;;;;;;;5.93;0.52;;;;;;;;;;5108946;28;20027;-63
2021/03/26 18:05:16;;;;;;;0.52;0.52;;;;;;;;;;5107016;28;20036;-63
2021/03/26 18:07:51;;;;;;;0.15;0.15;;;;;;;;;;5107600;28;20085;-62
2021/03/26 18:10:21;;;;;;;6.13;0.43;;;;;;;;;;5106866;28;20451;-67
2021/03/26 18:12:56;;;;;;;10.05;1.98;;;;;;;;;;5107138;28;20016;-62
2021/03/26 18:15:22;;;;;;;;;;;;;;;;;;5108865;28;20497;-61
2021/03/26 18:18:04;;;;;;;1.05;0.50;;;;;;;;;;5101118;28;19915;-60
2021/03/26 18:20:32;;;;;;;0.10;0.10;;;;;;;;;;5107695;28;20077;-65
2021/03/26 18:23:17;;;;;;;0.20;0.20;;;;;;;;;;5106070;28;20716;-64
2021/03/26 18:25:46;;;;;;;0.10;0.10;;;;;;;;;;5106919;28;20027;-61
2021/03/26 18:28:13;;;;;;;0.30;0.30;;;;;;;;;;5104360;28;20024;-63
2021/03/26 18:30:58;;;;;;;0.25;0.25;;;;;;;;;;5107528;28;20059;-61
2021/03/26 18:33:30;;;;;;;1.10;0.80;;;;;;;;;;5107379;28;20416;-64
2021/03/26 18:36:06;;;;;;;5.85;0.70;;;;;;;;;;5109872;28;20107;-64
2021/03/26 18:38:32;;;;;;;;;;;;;;;;;;5109402;28;20081;-63
2021/03/26 18:41:07;;;;;;;3.40;1.35;;;;;;;;;;5107639;28;19911;-60
2021/03/26 18:43:52;;;;;;;0.47;0.47;;;;;;;;;;5106766;28;20028;-62
2021/03/26 18:46:37;;;;;;;1.60;0.53;;;;;;;;;;5109648;28;20431;-63
2021/03/26 18:49:21;;;;;;;0.90;0.33;;;;;;;;;;5108247;28;20465;-62
2021/03/26 18:51:47;;;;;;;0.20;0.20;;;;;;;;;;5107497;28;20443;-62
2021/03/26 18:54:26;;;;;;;2.50;0.90;;;;;;;;;;5108762;28;20057;-62
2021/03/26 18:56:59;;;;;;;1.77;0.98;;;;;;;;;;5113174;28;20118;-62
2021/03/26 18:59:43;;;;;;;0.95;0.20;;;;;;;;;;5110599;28;20048;-64
2021/03/26 19:02:20;;;;;;;2.53;0.45;;;;;;;;;;5112512;28;20035;-62
2021/03/26 19:04:50;;;;;;;0.20;0.20;;;;;;;;;;5109696;28;20099;-62
2021/03/26 19:07:28;;;;;;;0.10;0.10;;;;;;;;;;5109914;28;20522;-67
2021/03/26 19:10:00;;;;;;;0.20;0.20;;;;;;;;;;5099325;28;20036;-67
2021/03/26 19:12:32;;;;;;;0.52;0.45;;;;;;;;;;5099841;28;20028;-64
2021/03/26 19:15:14;;;;;;;5.78;1.55;;;;;;;;;;5094588;28;20114;-63
2021/03/26 19:17:41;;;;;;;8.40;1.27;;;;;;;;;;5108705;27;20115;-63
2021/03/26 19:20:16;;;;;;;2.47;0.63;;;;;;;;;;5096263;27;20024;-64
2021/03/26 19:22:48;;;;;;;4.28;1.10;;;;;;;;;;5100045;27;20027;-62
2021/03/26 19:25:27;;;;;;;1.38;0.43;;;;;;;;;;5096004;27;20024;-64
2021/03/26 19:27:53;;;;;;;3.42;0.98;;;;;;;;;;5094679;27;20034;-61
2021/03/26 19:30:34;;;;;;;7.22;2.42;;;;;;;;;;5095047;27;20081;-61
2021/03/26 19:33:03;;;;;;;0.43;0.32;;;;;;;;;;5074179;28;20060;-61
2021/03/26 19:35:43;;;;;;;7.88;1.35;;;;;;;;;;5094250;27;20066;-60
2021/03/26 19:38:21;;;;;;;0.20;0.20;;;;;;;;;;5093926;27;20477;-60
2021/03/26 19:40:58;;;;;;;0.20;0.20;;;;;;;;;;5094347;27;20122;-62
2021/03/26 19:43:33;;;;;;;0.88;0.68;;;;;;;;;;5093126;27;20529;-61
2021/03/26 19:46:20;;;;;;;5.38;1.30;;;;;;;;;;5090833;28;20028;-61
2021/03/26 19:49:12;;;;;;;1.08;0.30;;;;;;;;;;5091688;27;20036;-63
2021/03/26 19:51:48;;;;;;;0.55;0.30;;;;;;;;;;5087169;27;20044;-61
2021/03/26 19:54:20;;;;;;;0.20;0.20;;;;;;;;;;5092748;27;20490;-61
2021/03/26 19:56:58;;;;;;;6.32;2.05;;;;;;;;;;5094772;27;20024;-62
2021/03/26 19:59:24;;;;;;;0.90;0.73;;;;;;;;;;5093616;27;20040;-62
2021/03/26 20:01:58;;;;;;;5.45;1.00;;;;;;;;;;5094168;27;20028;-63
2021/03/26 20:04:31;;;;;;;0.17;0.17;;;;;;;;;;5094206;27;20020;-62
2021/03/26 20:06:57;;;;;;;1.40;0.73;;;;;;;;;;5090336;27;20026;-63
2021/03/26 20:09:29;;;;;;;8.05;1.67;;;;;;;;;;5093723;27;20066;-61
2021/03/26 20:11:58;;;;;;;12.50;3.80;;;;;;;;;;5093540;27;20032;-64
2021/03/26 20:14:24;;;;;;;1.13;0.40;;;;;;;;;;5094764;27;20020;-61
2021/03/26 20:16:53;;;;;;;20.48;1.33;;;;;;;;;;5093248;27;20056;-62
2021/03/26 20:19:20;;;;;;;0.70;0.28;;;;;;;;;;5093306;27;20050;-63
2021/03/26 20:22:00;;;;;;;7.93;0.73;;;;;;;;;;5093459;27;20190;-61
2021/03/26 20:24:32;;;;;;;0.77;0.52;;;;;;;;;;5095699;27;20495;-61
2021/03/26 20:27:07;;;;;;;8.82;1.88;;;;;;;;;;5115096;27;20035;-64
2021/03/26 20:29:33;;;;;;;3.40;0.90;;;;;;;;;;5111412;27;20043;-60
2021/03/26 20:32:15;;;;;;;1.33;1.00;;;;;;;;;;5111399;27;20419;-62
2021/03/26 20:34:47;;;;;;;1.00;0.63;;;;;;;;;;5109443;27;20050;-61
2021/03/26 20:37:16;;;;;;;1.20;0.32;;;;;;;;;;5109593;27;20031;-64
2021/03/26 20:39:46;;;;;;;7.28;1.38;;;;;;;;;;5108771;27;20019;-62
2021/03/26 20:42:25;;;;;;;0.13;0.13;;;;;;;;;;5110151;27;20028;-62
2021/03/26 20:45:06;;;;;;;0.10;0.10;;;;;;;;;;5094649;28;20044;-62
2021/03/26 20:47:41;;;;;;;2.03;0.38;;;;;;;;;;5105538;27;20485;-61
2021/03/26 20:50:26;;;;;;;0.20;0.20;;;;;;;;;;5106326;27;20042;-62
2021/03/26 20:53:09;;;;;;;1.85;0.93;;;;;;;;;;5094414;28;20412;-61
2021/03/26 20:55:47;;;;;;;3.22;1.10;;;;;;;;;;5109913;27;20504;-63
2021/03/26 20:58:19;;;;;;;3.08;0.38;;;;;;;;;;5104043;27;20027;-61
2021/03/26 21:00:48;;;;;;;0.30;0.30;;;;;;;;;;5107201;27;20032;-61
2021/03/26 21:03:23;;;;;;;0.30;0.30;;;;;;;;;;5102942;28;20035;-64
2021/03/26 21:06:04;;;;;;;1.42;0.40;;;;;;;;;;5112963;27;20032;-63
2021/03/26 21:08:35;;;;;;;2.10;0.82;;;;;;;;;;5104813;28;20554;-63
2021/03/26 21:11:07;;;;;;;1.15;0.63;;;;;;;;;;5090077;28;20032;-62
2021/03/26 21:13:57;;;;;;;1.17;0.52;;;;;;;;;;5108160;28;20027;-61
2021/03/26 21:16:29;;;;;;;5.68;1.30;;;;;;;;;;5097464;28;20035;-60
2021/03/26 21:18:55;;;;;;;0.10;0.10;;;;;;;;;;5107689;28;20059;-61
2021/03/26 21:21:30;;;;;;;6.85;2.28;;;;;;;;;;5108569;28;20076;-60
2021/03/26 21:23:59;;;;;;;1.08;1.02;;;;;;;;;;5110051;28;20015;-63
2021/03/26 21:26:27;;;;;;;0.63;0.60;;;;;;;;;;5108132;28;20500;-63
2021/03/26 21:28:56;;;;;;;0.30;0.30;;;;;;;;;;5106063;28;20036;-61
